createdAt,value
2018-09-27T00:00:50.513Z,0
2018-09-27T00:02:00.369Z,0
2018-09-27T00:03:10.009Z,0
2018-09-27T00:04:19.314Z,0
2018-09-27T00:05:28.897Z,0
2018-09-27T00:06:38.750Z,0
2018-09-27T00:07:48.330Z,0
2018-09-27T00:08:58.509Z,0
2018-09-27T00:10:08.367Z,0
2018-09-27T00:11:18.231Z,0
2018-09-27T00:12:27.811Z,0
2018-09-27T00:13:37.940Z,0
2018-09-27T00:14:48.089Z,0
2018-09-27T00:15:57.950Z,0
2018-09-27T00:17:07.538Z,0
2018-09-27T00:18:17.410Z,0
2018-09-27T00:19:27.659Z,0
2018-09-27T00:20:39.536Z,0
2018-09-27T00:21:49.670Z,0
2018-09-27T00:22:59.823Z,0
2018-09-27T00:24:09.130Z,0
2018-09-27T00:25:18.441Z,0
2018-09-27T00:26:28.574Z,0
2018-09-27T00:27:38.431Z,0
2018-09-27T00:28:48.321Z,0
2018-09-27T00:29:58.460Z,0
2018-09-27T00:31:08.044Z,0
2018-09-27T00:32:17.907Z,0
2018-09-27T00:33:28.044Z,0
2018-09-27T00:34:37.626Z,0
2018-09-27T00:35:47.485Z,0
2018-09-27T00:36:57.614Z,0
2018-09-27T00:38:07.471Z,0
2018-09-27T00:39:17.060Z,0
2018-09-27T00:40:27.192Z,0
2018-09-27T00:41:37.326Z,0
2018-09-27T00:42:47.467Z,0
2018-09-27T00:43:56.775Z,0
2018-09-27T00:45:06.353Z,0
2018-09-27T00:46:16.206Z,0
2018-09-27T00:47:26.062Z,0
2018-09-27T00:48:35.918Z,0
2018-09-27T00:49:46.058Z,0
2018-09-27T00:50:56.233Z,0
2018-09-27T00:52:06.087Z,0
2018-09-27T00:53:15.944Z,0
2018-09-27T00:54:25.799Z,0
2018-09-27T00:55:35.979Z,0
2018-09-27T00:56:46.107Z,0
2018-09-27T00:57:55.973Z,0
2018-09-27T00:59:06.104Z,0
2018-09-27T01:00:16.237Z,0
2018-09-27T01:01:25.867Z,0
2018-09-27T01:02:35.720Z,0
2018-09-27T01:03:45.850Z,0
2018-09-27T01:04:55.703Z,0
2018-09-27T01:06:05.836Z,0
2018-09-27T01:07:15.741Z,0
2018-09-27T01:08:25.600Z,0
2018-09-27T01:09:35.458Z,0
2018-09-27T01:10:45.592Z,0
2018-09-27T01:11:55.447Z,0
2018-09-27T01:13:05.576Z,0
2018-09-27T01:14:15.703Z,0
2018-09-27T01:15:25.561Z,0
2018-09-27T01:16:35.418Z,0
2018-09-27T01:17:45.552Z,0
2018-09-27T01:18:55.701Z,0
2018-09-27T01:20:05.565Z,0
2018-09-27T01:21:15.697Z,0
2018-09-27T01:22:25.570Z,0
2018-09-27T01:23:35.703Z,0
2018-09-27T01:24:45.610Z,0
2018-09-27T01:25:55.739Z,0
2018-09-27T01:27:05.872Z,0
2018-09-27T01:28:15.452Z,0
2018-09-27T01:29:25.342Z,0
2018-09-27T01:30:35.303Z,0
2018-09-27T01:31:45.444Z,0
2018-09-27T01:32:55.578Z,0
2018-09-27T01:34:05.438Z,0
2018-09-27T01:35:15.567Z,0
2018-09-27T01:36:25.756Z,0
2018-09-27T01:37:35.892Z,0
2018-09-27T01:38:45.746Z,0
2018-09-27T01:39:55.877Z,0
2018-09-27T01:41:06.009Z,0
2018-09-27T01:42:15.654Z,0
2018-09-27T01:43:25.517Z,0
2018-09-27T01:44:35.658Z,0
2018-09-27T01:45:45.806Z,0
2018-09-27T01:46:55.963Z,0
2018-09-27T01:48:06.117Z,0
2018-09-27T01:49:15.708Z,0
2018-09-27T01:50:25.575Z,0
2018-09-27T01:51:35.159Z,0
2018-09-27T01:52:45.014Z,0
2018-09-27T01:53:54.594Z,0
2018-09-27T01:55:04.192Z,0
2018-09-27T01:56:14.049Z,0
2018-09-27T01:57:23.904Z,0
2018-09-27T01:58:34.031Z,0
2018-09-27T01:59:44.167Z,0
2018-09-27T02:00:54.341Z,0
2018-09-27T02:02:04.200Z,0
2018-09-27T02:03:14.067Z,0
2018-09-27T02:04:23.919Z,0
2018-09-27T02:05:34.114Z,0
2018-09-27T02:06:44.247Z,0
2018-09-27T02:07:54.380Z,0
2018-09-27T02:09:04.510Z,0
2018-09-27T02:10:14.369Z,0
2018-09-27T02:11:24.497Z,0
2018-09-27T02:12:34.626Z,0
2018-09-27T02:13:44.204Z,0
2018-09-27T02:14:54.332Z,0
2018-09-27T02:16:04.189Z,0
2018-09-27T02:17:13.772Z,0
2018-09-27T02:18:23.903Z,0
2018-09-27T02:19:34.076Z,0
2018-09-27T02:20:43.928Z,0
2018-09-27T02:21:54.059Z,0
2018-09-27T02:23:03.968Z,0
2018-09-27T02:24:13.828Z,0
2018-09-27T02:25:23.961Z,0
2018-09-27T02:26:33.823Z,0
2018-09-27T02:27:43.951Z,0
2018-09-27T02:28:53.539Z,0
2018-09-27T02:30:03.671Z,0
2018-09-27T02:31:13.280Z,0
2018-09-27T02:32:23.433Z,0
2018-09-27T02:33:33.299Z,0
2018-09-27T02:34:47.685Z,0
2018-09-27T02:35:57.817Z,0
2018-09-27T02:37:07.962Z,0
2018-09-27T02:38:18.101Z,0
2018-09-27T02:39:28.264Z,0
2018-09-27T02:40:38.452Z,0
2018-09-27T02:41:48.315Z,0
2018-09-27T02:42:58.236Z,0
2018-09-27T02:44:08.370Z,0
2018-09-27T02:45:18.512Z,0
2018-09-27T02:46:28.645Z,0
2018-09-27T02:47:38.782Z,0
2018-09-27T02:48:48.365Z,0
2018-09-27T02:49:57.675Z,0
2018-09-27T02:51:07.807Z,0
2018-09-27T02:52:17.934Z,0
2018-09-27T02:53:28.065Z,0
2018-09-27T02:54:38.201Z,0
2018-09-27T02:55:48.348Z,0
2018-09-27T02:56:58.485Z,0
2018-09-27T02:58:08.345Z,0
2018-09-27T02:59:18.209Z,0
2018-09-27T03:00:28.346Z,0
2018-09-27T03:01:38.209Z,0
2018-09-27T03:02:48.338Z,0
2018-09-27T03:03:58.466Z,0
2018-09-27T03:05:08.328Z,0
2018-09-27T03:06:18.192Z,0
2018-09-27T03:07:28.334Z,0
2018-09-27T03:08:38.471Z,0
2018-09-27T03:09:48.381Z,0
2018-09-27T03:10:57.983Z,0
2018-09-27T03:12:07.897Z,0
2018-09-27T03:13:18.040Z,0
2018-09-27T03:14:28.177Z,0
2018-09-27T03:15:38.352Z,0
2018-09-27T03:16:48.489Z,0
2018-09-27T03:17:58.352Z,0
2018-09-27T03:19:08.211Z,0
2018-09-27T03:20:18.074Z,0
2018-09-27T03:21:27.655Z,0
2018-09-27T03:22:37.515Z,0
2018-09-27T03:23:47.681Z,0
2018-09-27T03:24:57.837Z,0
2018-09-27T03:26:07.970Z,0
2018-09-27T03:27:17.601Z,0
2018-09-27T03:28:26.908Z,0
2018-09-27T03:29:37.044Z,0
2018-09-27T03:30:47.092Z,0
2018-09-27T03:31:57.245Z,0
2018-09-27T03:33:07.342Z,0
2018-09-27T03:34:17.396Z,0
2018-09-27T03:35:27.431Z,0
2018-09-27T03:36:37.519Z,0
2018-09-27T03:37:47.659Z,0
2018-09-27T03:38:57.839Z,0
2018-09-27T03:40:07.607Z,0
2018-09-27T03:41:17.827Z,0
2018-09-27T03:42:27.683Z,0
2018-09-27T03:43:37.814Z,0
2018-09-27T03:44:48.006Z,0
2018-09-27T03:45:57.876Z,0
2018-09-27T03:47:08.004Z,0
2018-09-27T03:48:17.869Z,0
2018-09-27T03:49:27.733Z,0
2018-09-27T03:50:37.635Z,0
2018-09-27T03:51:47.491Z,0
2018-09-27T03:52:57.640Z,0
2018-09-27T03:54:07.496Z,0
2018-09-27T03:55:17.629Z,0
2018-09-27T03:56:27.807Z,0
2018-09-27T03:57:37.673Z,0
2018-09-27T03:58:47.817Z,0
2018-09-27T03:59:57.706Z,0
2018-09-27T04:01:07.570Z,0
2018-09-27T04:02:17.751Z,0
2018-09-27T04:03:28.503Z,0
2018-09-27T04:04:38.360Z,0
2018-09-27T04:05:48.496Z,0
2018-09-27T04:06:58.632Z,0
2018-09-27T04:08:08.816Z,0
2018-09-27T04:09:18.395Z,0
2018-09-27T04:10:28.529Z,0
2018-09-27T04:11:38.658Z,0
2018-09-27T04:12:49.154Z,0
2018-09-27T04:13:59.033Z,0
2018-09-27T04:15:08.899Z,0
2018-09-27T04:16:19.032Z,0
2018-09-27T04:17:28.609Z,0
2018-09-27T04:18:38.190Z,0
2018-09-27T04:19:50.324Z,0
2018-09-27T04:21:00.462Z,0
2018-09-27T04:22:10.607Z,0
2018-09-27T04:23:20.467Z,0
2018-09-27T04:24:30.648Z,0
2018-09-27T04:25:40.829Z,0
2018-09-27T04:26:50.961Z,0
2018-09-27T04:28:01.451Z,0
2018-09-27T04:29:11.036Z,0
2018-09-27T04:30:20.892Z,0
2018-09-27T04:31:30.805Z,0
2018-09-27T04:32:40.952Z,0
2018-09-27T04:33:51.551Z,0
2018-09-27T04:35:01.780Z,0
2018-09-27T04:36:11.643Z,0
2018-09-27T04:37:21.557Z,0
2018-09-27T04:38:31.694Z,0
2018-09-27T04:39:42.009Z,0
2018-09-27T04:40:52.211Z,0
2018-09-27T04:42:02.079Z,0
2018-09-27T04:43:11.719Z,0
2018-09-27T04:44:21.586Z,0
2018-09-27T04:45:31.718Z,0
2018-09-27T04:46:42.057Z,0
2018-09-27T04:47:52.242Z,0
2018-09-27T04:49:02.151Z,0
2018-09-27T04:50:11.459Z,0
2018-09-27T04:51:21.583Z,0
2018-09-27T04:52:31.620Z,0
2018-09-27T04:53:41.378Z,0
2018-09-27T04:54:51.183Z,0
2018-09-27T04:56:01.212Z,0
2018-09-27T04:57:10.710Z,0
2018-09-27T04:58:20.480Z,0
2018-09-27T04:59:30.512Z,0
2018-09-27T05:00:40.591Z,0
2018-09-27T05:01:50.620Z,0
2018-09-27T05:02:59.841Z,5
2018-09-27T05:04:09.902Z,5
2018-09-27T05:05:19.131Z,0
2018-09-27T05:06:29.662Z,0
2018-09-27T05:07:39.503Z,5
2018-09-27T05:08:49.264Z,5
2018-09-27T05:09:59.025Z,5
2018-09-27T05:11:08.787Z,5
2018-09-27T05:12:18.871Z,5
2018-09-27T05:13:28.099Z,5
2018-09-27T05:14:38.132Z,5
2018-09-27T05:15:48.297Z,5
2018-09-27T05:16:58.064Z,5
2018-09-27T05:18:08.099Z,10
2018-09-27T05:19:17.593Z,10
2018-09-27T05:20:27.610Z,10
2018-09-27T05:21:37.024Z,10
2018-09-27T05:22:47.147Z,10
2018-09-27T05:23:57.238Z,10
2018-09-27T05:25:06.733Z,15
2018-09-27T05:26:16.498Z,15
2018-09-27T05:27:26.612Z,15
2018-09-27T05:28:36.425Z,15
2018-09-27T05:29:46.504Z,20
2018-09-27T05:30:56.547Z,20
2018-09-27T05:32:05.769Z,20
2018-09-27T05:33:15.797Z,20
2018-09-27T05:34:25.561Z,25
2018-09-27T05:35:35.651Z,25
2018-09-27T05:36:45.674Z,25
2018-09-27T05:37:55.707Z,25
2018-09-27T05:39:05.734Z,25
2018-09-27T05:40:15.761Z,30
2018-09-27T05:41:25.303Z,30
2018-09-27T05:42:35.334Z,30
2018-09-27T05:43:45.367Z,35
2018-09-27T05:44:55.394Z,35
2018-09-27T05:46:05.420Z,35
2018-09-27T05:47:14.969Z,35
2018-09-27T05:48:24.729Z,40
2018-09-27T05:49:34.757Z,40
2018-09-27T05:50:44.514Z,40
2018-09-27T05:51:54.004Z,40
2018-09-27T05:53:04.091Z,45
2018-09-27T05:54:13.850Z,45
2018-09-27T05:55:23.876Z,45
2018-09-27T05:56:33.651Z,50
2018-09-27T05:57:44.121Z,50
2018-09-27T05:58:53.448Z,55
2018-09-27T06:00:03.486Z,55
2018-09-27T06:01:12.709Z,55
2018-09-27T06:02:22.267Z,55
2018-09-27T06:03:32.531Z,55
2018-09-27T06:04:42.098Z,55
2018-09-27T06:05:52.126Z,60
2018-09-27T06:07:01.888Z,60
2018-09-27T06:08:11.122Z,60
2018-09-27T06:09:20.902Z,60
2018-09-27T06:10:30.985Z,60
2018-09-27T06:11:41.270Z,60
2018-09-27T06:12:51.297Z,60
2018-09-27T06:14:01.325Z,60
2018-09-27T06:15:11.362Z,60
2018-09-27T06:16:21.173Z,65
2018-09-27T06:17:31.200Z,65
2018-09-27T06:18:41.229Z,70
2018-09-27T06:19:51.629Z,70
2018-09-27T06:21:01.377Z,65
2018-09-27T06:22:11.456Z,70
2018-09-27T06:23:20.946Z,70
2018-09-27T06:24:30.708Z,75
2018-09-27T06:25:40.737Z,80
2018-09-27T06:26:50.499Z,80
2018-09-27T06:27:59.993Z,80
2018-09-27T06:29:09.491Z,80
2018-09-27T06:30:19.257Z,85
2018-09-27T06:31:29.286Z,90
2018-09-27T06:32:39.315Z,95
2018-09-27T06:33:49.379Z,95
2018-09-27T06:34:59.001Z,95
2018-09-27T06:36:08.237Z,95
2018-09-27T06:37:17.999Z,95
2018-09-27T06:38:27.834Z,95
2018-09-27T06:39:37.971Z,95
2018-09-27T06:40:47.994Z,95
2018-09-27T06:41:57.493Z,95
2018-09-27T06:43:07.251Z,90
2018-09-27T06:44:17.015Z,85
2018-09-27T06:45:26.857Z,90
2018-09-27T06:46:36.616Z,100
2018-09-27T06:47:46.651Z,110
2018-09-27T06:48:56.713Z,115
2018-09-27T06:50:06.739Z,115
2018-09-27T06:51:20.456Z,110
2018-09-27T06:52:30.543Z,110
2018-09-27T06:53:40.037Z,105
2018-09-27T06:54:50.387Z,110
2018-09-27T06:56:01.531Z,115
2018-09-27T06:57:11.745Z,115
2018-09-27T06:58:21.240Z,120
2018-09-27T06:59:31.266Z,115
2018-09-27T07:00:41.043Z,110
2018-09-27T07:01:50.789Z,110
2018-09-27T07:03:00.607Z,115
2018-09-27T07:04:10.104Z,115
2018-09-27T07:05:19.862Z,120
2018-09-27T07:06:29.628Z,115
2018-09-27T07:07:39.660Z,115
2018-09-27T07:08:49.624Z,115
2018-09-27T07:09:59.386Z,120
2018-09-27T07:11:08.879Z,120
2018-09-27T07:12:19.993Z,120
2018-09-27T07:13:30.154Z,115
2018-09-27T07:14:40.099Z,110
2018-09-27T07:15:50.435Z,100
2018-09-27T07:17:00.470Z,100
2018-09-27T07:18:10.509Z,100
2018-09-27T07:19:20.534Z,100
2018-09-27T07:20:30.381Z,100
2018-09-27T07:21:40.429Z,100
2018-09-27T07:22:50.198Z,100
2018-09-27T07:24:00.230Z,95
2018-09-27T07:25:09.945Z,100
2018-09-27T07:26:20.106Z,95
2018-09-27T07:27:30.147Z,95
2018-09-27T07:28:39.907Z,95
2018-09-27T07:29:49.936Z,90
2018-09-27T07:30:59.795Z,90
2018-09-27T07:32:09.347Z,95
2018-09-27T07:33:19.120Z,100
2018-09-27T07:34:29.148Z,100
2018-09-27T07:35:38.911Z,100
2018-09-27T07:36:49.036Z,100
2018-09-27T07:37:59.115Z,100
2018-09-27T07:39:09.147Z,100
2018-09-27T07:40:18.643Z,100
2018-09-27T07:41:28.411Z,95
2018-09-27T07:42:38.297Z,90
2018-09-27T07:43:48.062Z,85
2018-09-27T07:44:58.151Z,80
2018-09-27T07:46:07.923Z,80
2018-09-27T07:47:17.414Z,80
2018-09-27T07:48:27.343Z,80
2018-09-27T07:49:37.448Z,85
2018-09-27T07:50:47.230Z,85
2018-09-27T07:51:56.991Z,80
2018-09-27T07:53:06.753Z,80
2018-09-27T07:54:16.941Z,80
2018-09-27T07:55:26.808Z,80
2018-09-27T07:56:37.213Z,80
2018-09-27T07:57:46.991Z,80
2018-09-27T07:58:57.030Z,80
2018-09-27T08:00:06.895Z,80
2018-09-27T08:01:17.003Z,85
2018-09-27T08:02:26.917Z,85
2018-09-27T08:03:36.693Z,95
2018-09-27T08:04:46.452Z,105
2018-09-27T08:05:56.486Z,115
2018-09-27T08:07:06.596Z,110
2018-09-27T08:08:16.365Z,105
2018-09-27T08:09:26.414Z,105
2018-09-27T08:10:36.439Z,100
2018-09-27T08:11:46.772Z,100
2018-09-27T08:12:56.700Z,95
2018-09-27T08:14:06.472Z,90
2018-09-27T08:15:15.970Z,90
2018-09-27T08:16:26.026Z,90
2018-09-27T08:17:36.052Z,90
2018-09-27T08:18:46.132Z,95
2018-09-27T08:19:55.889Z,90
2018-09-27T08:21:06.702Z,90
2018-09-27T08:22:16.759Z,90
2018-09-27T08:23:26.519Z,90
2018-09-27T08:24:36.063Z,95
2018-09-27T08:25:46.104Z,85
2018-09-27T08:26:56.153Z,85
2018-09-27T08:28:06.187Z,85
2018-09-27T08:29:16.221Z,85
2018-09-27T08:30:25.919Z,80
2018-09-27T08:31:35.953Z,80
2018-09-27T08:32:46.522Z,80
2018-09-27T08:33:56.561Z,80
2018-09-27T08:35:06.600Z,80
2018-09-27T08:36:16.741Z,85
2018-09-27T08:37:26.771Z,85
2018-09-27T08:38:36.520Z,90
2018-09-27T08:39:46.562Z,85
2018-09-27T08:40:56.318Z,85
2018-09-27T08:42:05.812Z,95
2018-09-27T08:43:15.576Z,95
2018-09-27T08:44:25.628Z,100
2018-09-27T08:45:37.429Z,105
2018-09-27T08:46:46.823Z,105
2018-09-27T08:47:56.850Z,110
2018-09-27T08:49:06.342Z,120
2018-09-27T08:50:15.840Z,130
2018-09-27T08:51:25.667Z,130
2018-09-27T08:52:35.438Z,130
2018-09-27T08:53:45.486Z,140
2018-09-27T08:54:55.248Z,140
2018-09-27T08:56:06.368Z,130
2018-09-27T08:57:16.450Z,125
2018-09-27T08:58:26.215Z,125
2018-09-27T08:59:35.977Z,125
2018-09-27T09:00:45.760Z,130
2018-09-27T09:01:55.792Z,125
2018-09-27T09:03:05.826Z,130
2018-09-27T09:04:15.598Z,125
2018-09-27T09:05:25.384Z,120
2018-09-27T09:06:34.881Z,120
2018-09-27T09:07:45.316Z,120
2018-09-27T09:08:55.354Z,115
2018-09-27T09:10:04.858Z,110
2018-09-27T09:11:14.946Z,105
2018-09-27T09:12:25.303Z,105
2018-09-27T09:13:35.234Z,105
2018-09-27T09:14:45.069Z,110
2018-09-27T09:15:54.576Z,110
2018-09-27T09:17:04.366Z,115
2018-09-27T09:18:13.854Z,115
2018-09-27T09:19:23.903Z,120
2018-09-27T09:20:33.665Z,120
2018-09-27T09:21:43.513Z,120
2018-09-27T09:22:53.623Z,120
2018-09-27T09:24:03.132Z,120
2018-09-27T09:25:12.907Z,115
2018-09-27T09:26:22.938Z,115
2018-09-27T09:27:32.870Z,120
2018-09-27T09:28:42.705Z,120
2018-09-27T09:29:53.022Z,115
2018-09-27T09:31:03.137Z,110
2018-09-27T09:32:12.899Z,105
2018-09-27T09:33:22.661Z,100
2018-09-27T09:34:32.689Z,95
2018-09-27T09:35:43.164Z,95
2018-09-27T09:36:52.941Z,95
2018-09-27T09:38:02.981Z,95
2018-09-27T09:39:12.762Z,95
2018-09-27T09:40:22.806Z,95
2018-09-27T09:41:32.567Z,100
2018-09-27T09:42:42.596Z,100
2018-09-27T09:43:52.362Z,95
2018-09-27T09:45:01.854Z,100
2018-09-27T09:46:11.344Z,100
2018-09-27T09:47:21.112Z,95
2018-09-27T09:48:30.876Z,95
2018-09-27T09:49:40.642Z,95
2018-09-27T09:50:50.674Z,95
2018-09-27T09:52:00.712Z,100
2018-09-27T09:53:10.470Z,100
2018-09-27T09:54:20.233Z,100
2018-09-27T09:55:30.264Z,95
2018-09-27T09:56:40.029Z,95
2018-09-27T09:57:50.061Z,100
2018-09-27T09:58:59.824Z,100
2018-09-27T10:00:08.787Z,100
2018-09-27T10:01:18.827Z,100
2018-09-27T10:02:29.005Z,100
2018-09-27T10:03:39.109Z,100
2018-09-27T10:04:49.138Z,105
2018-09-27T10:05:59.161Z,100
2018-09-27T10:07:09.195Z,100
2018-09-27T10:08:19.226Z,100
2018-09-27T10:09:28.451Z,100
2018-09-27T10:10:37.958Z,100
2018-09-27T10:11:47.188Z,100
2018-09-27T10:12:56.682Z,100
2018-09-27T10:14:06.444Z,100
2018-09-27T10:15:16.210Z,100
2018-09-27T10:16:26.247Z,95
2018-09-27T10:17:35.743Z,95
2018-09-27T10:18:45.781Z,95
2018-09-27T10:19:55.278Z,90
2018-09-27T10:21:05.353Z,90
2018-09-27T10:22:15.470Z,95
2018-09-27T10:23:25.522Z,95
2018-09-27T10:24:35.015Z,95
2018-09-27T10:25:45.050Z,95
2018-09-27T10:26:54.826Z,95
2018-09-27T10:28:04.594Z,95
2018-09-27T10:29:14.629Z,95
2018-09-27T10:30:24.392Z,95
2018-09-27T10:31:34.153Z,95
2018-09-27T10:32:44.186Z,95
2018-09-27T10:33:54.216Z,95
2018-09-27T10:35:04.261Z,95
2018-09-27T10:36:14.023Z,95
2018-09-27T10:37:24.050Z,95
2018-09-27T10:38:33.808Z,95
2018-09-27T10:39:43.303Z,100
2018-09-27T10:40:53.063Z,100
2018-09-27T10:42:03.095Z,95
2018-09-27T10:43:13.120Z,90
2018-09-27T10:44:23.197Z,90
2018-09-27T10:45:33.243Z,85
2018-09-27T10:46:43.270Z,85
2018-09-27T10:47:53.302Z,85
2018-09-27T10:49:03.339Z,80
2018-09-27T10:50:12.561Z,80
2018-09-27T10:51:21.924Z,80
2018-09-27T10:52:31.759Z,80
2018-09-27T10:53:41.788Z,80
2018-09-27T10:54:51.563Z,80
2018-09-27T10:56:00.787Z,80
2018-09-27T10:57:10.497Z,80
2018-09-27T10:58:20.592Z,75
2018-09-27T10:59:30.692Z,75
2018-09-27T11:00:40.781Z,75
2018-09-27T11:01:50.547Z,75
2018-09-27T11:03:00.046Z,70
2018-09-27T11:04:09.759Z,70
2018-09-27T11:05:19.589Z,70
2018-09-27T11:06:29.352Z,70
2018-09-27T11:07:39.398Z,70
2018-09-27T11:08:48.630Z,70
2018-09-27T11:09:58.662Z,70
2018-09-27T11:11:08.566Z,65
2018-09-27T11:12:18.386Z,65
2018-09-27T11:13:28.199Z,65
2018-09-27T11:14:37.964Z,60
2018-09-27T11:15:47.997Z,60
2018-09-27T11:16:58.032Z,65
2018-09-27T11:18:06.987Z,65
2018-09-27T11:19:17.114Z,65
2018-09-27T11:20:26.615Z,65
2018-09-27T11:21:36.377Z,60
2018-09-27T11:22:46.425Z,65
2018-09-27T11:23:56.190Z,65
2018-09-27T11:25:06.323Z,65
2018-09-27T11:26:16.083Z,65
2018-09-27T11:27:25.666Z,65
2018-09-27T11:28:35.721Z,65
2018-09-27T11:29:45.756Z,65
2018-09-27T11:30:55.898Z,65
2018-09-27T11:32:05.941Z,65
2018-09-27T11:33:15.595Z,65
2018-09-27T11:34:25.361Z,70
2018-09-27T11:35:35.119Z,75
2018-09-27T11:36:44.675Z,75
2018-09-27T11:37:54.704Z,75
2018-09-27T11:39:04.490Z,80
2018-09-27T11:40:13.989Z,80
2018-09-27T11:41:24.022Z,80
2018-09-27T11:42:34.409Z,80
2018-09-27T11:43:44.156Z,85
2018-09-27T11:44:53.916Z,85
2018-09-27T11:46:03.676Z,85
2018-09-27T11:47:13.441Z,85
2018-09-27T11:48:23.301Z,90
2018-09-27T11:49:34.031Z,90
2018-09-27T11:50:43.623Z,90
2018-09-27T11:51:53.115Z,90
2018-09-27T11:53:02.879Z,90
2018-09-27T11:54:12.800Z,90
2018-09-27T11:55:23.008Z,90
2018-09-27T11:56:32.792Z,90
2018-09-27T11:57:42.823Z,90
2018-09-27T11:58:52.898Z,90
2018-09-27T12:00:03.090Z,90
2018-09-27T12:01:13.152Z,90
2018-09-27T12:02:23.206Z,90
2018-09-27T12:03:33.242Z,90
2018-09-27T12:04:43.000Z,90
2018-09-27T12:05:53.254Z,90
2018-09-27T12:07:03.300Z,90
2018-09-27T12:08:13.063Z,90
2018-09-27T12:09:23.092Z,90
2018-09-27T12:10:32.850Z,90
2018-09-27T12:11:42.443Z,95
2018-09-27T12:12:51.934Z,95
2018-09-27T12:14:01.430Z,95
2018-09-27T12:15:11.467Z,95
2018-09-27T12:16:21.511Z,100
2018-09-27T12:17:31.811Z,100
2018-09-27T12:18:41.588Z,105
2018-09-27T12:19:51.815Z,105
2018-09-27T12:21:01.863Z,110
2018-09-27T12:22:11.640Z,110
2018-09-27T12:23:22.125Z,110
2018-09-27T12:24:31.880Z,110
2018-09-27T12:25:42.298Z,110
2018-09-27T12:26:52.035Z,110
2018-09-27T12:28:01.526Z,110
2018-09-27T12:29:11.076Z,110
2018-09-27T12:30:20.842Z,110
2018-09-27T12:31:30.869Z,110
2018-09-27T12:32:40.900Z,105
2018-09-27T12:33:50.683Z,105
2018-09-27T12:35:00.603Z,105
2018-09-27T12:36:10.366Z,105
2018-09-27T12:37:20.129Z,105
2018-09-27T12:38:30.284Z,105
2018-09-27T12:39:40.868Z,105
2018-09-27T12:40:51.321Z,110
2018-09-27T12:42:02.664Z,110
2018-09-27T12:43:12.568Z,110
2018-09-27T12:44:22.598Z,110
2018-09-27T12:45:33.044Z,110
2018-09-27T12:46:43.301Z,115
2018-09-27T12:47:52.855Z,120
2018-09-27T12:49:02.466Z,120
2018-09-27T12:50:11.960Z,125
2018-09-27T12:51:22.787Z,125
2018-09-27T12:52:33.752Z,130
2018-09-27T12:53:43.615Z,130
2018-09-27T12:54:53.117Z,130
2018-09-27T12:56:03.446Z,130
2018-09-27T12:57:13.213Z,130
2018-09-27T12:58:23.127Z,135
2018-09-27T12:59:33.167Z,135
2018-09-27T13:00:42.934Z,140
2018-09-27T13:01:52.928Z,145
2018-09-27T13:03:03.515Z,150
2018-09-27T13:04:13.158Z,155
2018-09-27T13:05:23.184Z,160
2018-09-27T13:06:32.410Z,165
2018-09-27T13:07:42.194Z,170
2018-09-27T13:08:52.377Z,175
2018-09-27T13:10:03.442Z,170
2018-09-27T13:11:12.575Z,165
2018-09-27T13:12:22.553Z,160
2018-09-27T13:13:33.987Z,160
2018-09-27T13:14:43.719Z,170
2018-09-27T13:15:53.890Z,165
2018-09-27T13:17:04.026Z,160
2018-09-27T13:18:14.079Z,165
2018-09-27T13:19:24.373Z,175
2018-09-27T13:20:34.753Z,175
2018-09-27T13:21:44.996Z,175
2018-09-27T13:22:55.181Z,170
2018-09-27T13:24:05.215Z,175
2018-09-27T13:25:15.071Z,185
2018-09-27T13:26:25.138Z,185
2018-09-27T13:27:35.230Z,175
2018-09-27T13:28:44.670Z,165
2018-09-27T13:29:54.801Z,160
2018-09-27T13:31:05.088Z,160
2018-09-27T13:32:15.395Z,160
2018-09-27T13:33:25.479Z,160
2018-09-27T13:34:34.981Z,160
2018-09-27T13:35:44.472Z,165
2018-09-27T13:36:54.069Z,160
2018-09-27T13:38:04.105Z,155
2018-09-27T13:39:14.454Z,155
2018-09-27T13:40:24.216Z,150
2018-09-27T13:41:33.711Z,150
2018-09-27T13:42:43.473Z,145
2018-09-27T13:43:52.999Z,140
2018-09-27T13:45:03.053Z,140
2018-09-27T13:46:12.824Z,140
2018-09-27T13:47:22.589Z,140
2018-09-27T13:48:32.621Z,135
2018-09-27T13:49:42.668Z,135
2018-09-27T13:50:52.271Z,130
2018-09-27T13:52:02.051Z,125
2018-09-27T13:53:11.009Z,120
2018-09-27T13:54:20.768Z,120
2018-09-27T13:55:30.800Z,110
2018-09-27T13:56:40.899Z,105
2018-09-27T13:57:50.932Z,110
2018-09-27T13:59:00.961Z,115
2018-09-27T14:00:10.193Z,115
2018-09-27T14:01:19.963Z,125
2018-09-27T14:02:29.779Z,145
2018-09-27T14:03:39.272Z,165
2018-09-27T14:04:49.047Z,170
2018-09-27T14:05:59.094Z,170
2018-09-27T14:07:08.574Z,170
2018-09-27T14:08:18.124Z,155
2018-09-27T14:09:27.352Z,150
2018-09-27T14:10:37.393Z,155
2018-09-27T14:11:47.428Z,155
2018-09-27T14:12:57.462Z,155
2018-09-27T14:14:07.553Z,155
2018-09-27T14:15:17.057Z,155
2018-09-27T14:16:26.825Z,155
2018-09-27T14:17:36.871Z,155
2018-09-27T14:18:46.648Z,145
2018-09-27T14:19:56.466Z,135
2018-09-27T14:21:06.230Z,125
2018-09-27T14:22:16.270Z,115
2018-09-27T14:23:26.031Z,115
2018-09-27T14:24:34.992Z,110
2018-09-27T14:25:44.712Z,105
2018-09-27T14:26:54.542Z,100
2018-09-27T14:28:03.767Z,100
2018-09-27T14:29:13.803Z,105
2018-09-27T14:30:23.843Z,120
2018-09-27T14:31:33.384Z,115
2018-09-27T14:32:43.149Z,115
2018-09-27T14:33:53.183Z,115
2018-09-27T14:35:02.940Z,115
2018-09-27T14:36:12.727Z,115
2018-09-27T14:37:22.818Z,115
2018-09-27T14:38:32.584Z,120
2018-09-27T14:39:42.625Z,125
2018-09-27T14:40:52.285Z,120
2018-09-27T14:42:02.382Z,115
2018-09-27T14:43:12.467Z,115
2018-09-27T14:44:21.977Z,120
2018-09-27T14:45:31.476Z,125
2018-09-27T14:46:41.509Z,130
2018-09-27T14:47:51.395Z,140
2018-09-27T14:49:01.236Z,145
2018-09-27T14:50:11.234Z,155
2018-09-27T14:51:21.061Z,160
2018-09-27T14:52:31.208Z,160
2018-09-27T14:53:41.544Z,160
2018-09-27T14:54:51.664Z,150
2018-09-27T14:56:01.517Z,140
2018-09-27T14:57:11.356Z,135
2018-09-27T14:58:21.130Z,120
2018-09-27T14:59:31.344Z,100
2018-09-27T15:00:41.808Z,95
2018-09-27T15:01:51.964Z,110
2018-09-27T15:03:01.689Z,115
2018-09-27T15:04:11.462Z,110
2018-09-27T15:05:21.225Z,95
2018-09-27T15:06:31.408Z,85
2018-09-27T15:07:41.243Z,85
2018-09-27T15:08:51.009Z,90
2018-09-27T15:10:01.343Z,100
2018-09-27T15:11:11.451Z,115
2018-09-27T15:12:20.696Z,135
2018-09-27T15:13:30.473Z,160
2018-09-27T15:14:40.688Z,180
2018-09-27T15:15:50.411Z,170
2018-09-27T15:17:00.175Z,165
2018-09-27T15:18:09.775Z,155
2018-09-27T15:19:19.808Z,130
2018-09-27T15:20:29.898Z,120
2018-09-27T15:21:39.932Z,115
2018-09-27T15:22:50.375Z,120
2018-09-27T15:24:00.460Z,120
2018-09-27T15:25:09.971Z,130
2018-09-27T15:26:20.003Z,135
2018-09-27T15:27:29.784Z,135
2018-09-27T15:28:39.306Z,130
2018-09-27T15:29:49.117Z,130
2018-09-27T15:30:58.731Z,125
2018-09-27T15:32:08.499Z,120
2018-09-27T15:33:18.528Z,120
2018-09-27T15:34:28.558Z,125
2018-09-27T15:35:38.653Z,130
2018-09-27T15:36:48.697Z,120
2018-09-27T15:37:58.743Z,120
2018-09-27T15:39:08.838Z,110
2018-09-27T15:40:18.611Z,110
2018-09-27T15:41:28.123Z,100
2018-09-27T15:42:37.630Z,85
2018-09-27T15:43:47.422Z,75
2018-09-27T15:44:57.448Z,80
2018-09-27T15:46:07.211Z,85
2018-09-27T15:47:17.025Z,90
2018-09-27T15:48:27.063Z,95
2018-09-27T15:49:37.097Z,100
2018-09-27T15:50:47.137Z,90
2018-09-27T15:51:57.175Z,85
2018-09-27T15:53:06.987Z,85
2018-09-27T15:54:16.760Z,90
2018-09-27T15:55:26.529Z,90
2018-09-27T15:56:36.579Z,90
2018-09-27T15:57:46.345Z,95
2018-09-27T15:58:56.401Z,100
2018-09-27T16:00:06.442Z,105
2018-09-27T16:01:16.479Z,115
2018-09-27T16:02:26.507Z,120
2018-09-27T16:03:36.540Z,120
2018-09-27T16:04:46.458Z,110
2018-09-27T16:05:55.953Z,100
2018-09-27T16:07:05.716Z,95
2018-09-27T16:08:15.486Z,85
2018-09-27T16:09:25.307Z,75
2018-09-27T16:10:35.389Z,75
2018-09-27T16:11:45.107Z,75
2018-09-27T16:12:55.221Z,80
2018-09-27T16:14:04.987Z,80
2018-09-27T16:15:15.029Z,80
2018-09-27T16:16:25.110Z,75
2018-09-27T16:17:35.150Z,80
2018-09-27T16:18:45.200Z,85
2018-09-27T16:19:54.972Z,80
2018-09-27T16:21:04.210Z,75
2018-09-27T16:22:14.351Z,75
2018-09-27T16:23:23.584Z,75
2018-09-27T16:24:33.361Z,75
2018-09-27T16:25:43.126Z,75
2018-09-27T16:26:53.171Z,80
2018-09-27T16:28:03.213Z,90
2018-09-27T16:29:12.714Z,90
2018-09-27T16:30:22.216Z,80
2018-09-27T16:31:31.986Z,75
2018-09-27T16:32:41.754Z,75
2018-09-27T16:33:51.311Z,70
2018-09-27T16:35:01.346Z,65
2018-09-27T16:36:11.380Z,60